Time;durP1;ratioP1;P1;durP2;ratioP2;P2;SDS_P1;SDS_P2;PMS_P1;PMS_P2;Temp;Humidity;BMP_temperature;BMP_pressure;BME280_temperature;BME280_humidity;BME280_pressure;Samples;Min_cycle;Max_cycle;Signal;HPM_P1;HPM_P2
2022/03/05 00:00:45;;;;;;;17.35;8.80;;;1.60;85.30;;;;;;5051701;28;20459;-57
2022/03/05 00:03:12;;;;;;;22.88;9.45;;;1.60;85.90;;;;;;5052235;28;20440;-56
2022/03/05 00:05:38;;;;;;;19.20;9.00;;;1.60;86.00;;;;;;5052038;28;20377;-56
2022/03/05 00:08:04;;;;;;;20.42;9.60;;;1.70;86.00;;;;;;5033714;28;20417;-56
2022/03/05 00:10:30;;;;;;;19.67;9.25;;;2.30;86.50;;;;;;5052123;28;20397;-56
2022/03/05 00:12:56;;;;;;;18.00;8.60;;;3.30;87.90;;;;;;5049594;28;20390;-56
2022/03/05 00:15:24;;;;;;;18.75;8.85;;;1.50;86.60;;;;;;5055077;28;20372;-56
2022/03/05 00:17:50;;;;;;;19.38;9.07;;;1.40;87.00;;;;;;5070918;28;20537;-56
2022/03/05 00:20:16;;;;;;;23.08;9.32;;;1.10;87.80;;;;;;5071756;28;20380;-56
2022/03/05 00:22:42;;;;;;;19.08;9.63;;;0.80;89.90;;;;;;5071132;28;20742;-58
2022/03/05 00:25:10;;;;;;;17.85;9.13;;;0.60;90.90;;;;;;5071728;28;20376;-53
2022/03/05 00:27:35;;;;;;;20.90;9.65;;;0.50;92.20;;;;;;5071522;28;20851;-53
2022/03/05 00:30:02;;;;;;;17.88;9.48;;;0.30;93.30;;;;;;5071169;28;20402;-53
2022/03/05 00:32:27;;;;;;;18.47;9.90;;;0.10;94.70;;;;;;5071347;28;20391;-54
2022/03/05 00:34:53;;;;;;;20.90;10.53;;;-0.10;95.90;;;;;;5052037;28;20411;-54
2022/03/05 00:37:19;;;;;;;21.90;10.48;;;-0.20;96.90;;;;;;5071734;28;20376;-54
2022/03/05 00:39:44;;;;;;;22.67;10.70;;;-0.30;97.70;;;;;;5070636;28;20383;-55
2022/03/05 00:42:10;;;;;;;18.90;10.30;;;-0.30;98.60;;;;;;5071528;28;20412;-54
2022/03/05 00:44:36;;;;;;;23.17;10.55;;;-0.30;98.90;;;;;;5071508;28;20375;-54
2022/03/05 00:47:02;;;;;;;19.80;9.95;;;-0.30;99.80;;;;;;5053146;28;20388;-54
2022/03/05 00:49:27;;;;;;;17.48;8.80;;;-0.20;99.90;;;;;;5050938;28;20416;-54
2022/03/05 00:51:53;;;;;;;21.97;9.97;;;-0.20;99.90;;;;;;5016395;28;20393;-54
2022/03/05 00:54:20;;;;;;;19.10;8.90;;;-0.20;99.90;;;;;;5051226;28;20382;-54
2022/03/05 00:56:46;;;;;;;19.02;9.30;;;-0.10;99.90;;;;;;5055170;28;20408;-54
2022/03/05 00:59:12;;;;;;;20.13;9.63;;;-0.10;99.90;;;;;;5068222;28;20389;-54
2022/03/05 01:01:39;;;;;;;20.37;10.00;;;1.00;99.90;;;;;;5050994;28;20406;-54
2022/03/05 01:04:05;;;;;;;20.50;10.18;;;2.00;99.90;;;;;;5050149;28;20374;-54
2022/03/05 01:06:31;;;;;;;19.48;9.40;;;-0.20;99.90;;;;;;5049681;28;20405;-54
2022/03/05 01:08:59;;;;;;;20.67;9.32;;;-0.30;99.90;;;;;;5049891;28;20420;-55
2022/03/05 01:11:25;;;;;;;21.50;9.98;;;-0.40;99.90;;;;;;5050870;28;20472;-54
2022/03/05 01:13:50;;;;;;;20.05;9.00;;;1.30;99.90;;;;;;5050146;28;20460;-54
2022/03/05 01:16:16;;;;;;;19.85;9.55;;;-0.50;99.90;;;;;;5050571;28;20392;-54
2022/03/05 01:18:42;;;;;;;17.63;9.23;;;-0.60;99.90;;;;;;5050043;28;20393;-55
2022/03/05 01:21:08;;;;;;;22.02;10.00;;;-0.60;99.90;;;;;;5050733;28;20417;-54
2022/03/05 01:23:34;;;;;;;17.30;9.13;;;-0.50;99.90;;;;;;5050241;28;21151;-55
2022/03/05 01:25:59;;;;;;;20.40;8.90;;;1.00;99.90;;;;;;5049729;28;20382;-55
2022/03/05 01:28:25;;;;;;;22.77;9.88;;;0.70;99.90;;;;;;5050522;28;20396;-54
2022/03/05 01:30:51;;;;;;;18.37;9.20;;;-0.40;99.90;;;;;;5049286;28;20453;-55
2022/03/05 01:33:17;;;;;;;18.40;9.30;;;0.80;99.90;;;;;;5057707;28;20396;-55
2022/03/05 01:35:45;;;;;;;19.75;9.25;;;-0.50;99.90;;;;;;5067871;28;20874;-55
2022/03/05 01:38:12;;;;;;;17.88;8.80;;;-0.50;99.90;;;;;;5061718;28;20452;-54
2022/03/05 01:40:41;;;;;;;19.75;9.52;;;-0.50;99.90;;;;;;5050361;28;20437;-55
2022/03/05 01:43:07;;;;;;;18.80;8.73;;;-0.40;99.90;;;;;;5050036;28;20466;-55
2022/03/05 01:45:33;;;;;;;18.10;9.20;;;-0.40;99.90;;;;;;5049343;28;20421;-54
2022/03/05 01:47:59;;;;;;;20.48;9.43;;;1.50;99.90;;;;;;5048658;28;20392;-54
2022/03/05 01:50:26;;;;;;;20.80;9.60;;;-0.50;99.90;;;;;;5050247;28;20436;-54
2022/03/05 01:52:52;;;;;;;19.55;8.85;;;-0.50;99.90;;;;;;5049537;28;20388;-55
2022/03/05 01:55:18;;;;;;;17.45;9.10;;;-0.50;99.90;;;;;;5049654;28;20381;-55
2022/03/05 01:57:43;;;;;;;20.07;9.67;;;-0.50;99.90;;;;;;5049778;28;20369;-56
2022/03/05 02:00:12;;;;;;;17.30;8.70;;;0.10;99.90;;;;;;5049935;28;20810;-54
2022/03/05 02:02:38;;;;;;;18.23;9.30;;;-0.60;99.90;;;;;;5049785;28;20440;-54
2022/03/05 02:05:04;;;;;;;20.10;9.10;;;1.40;99.90;;;;;;5048789;28;20435;-54
2022/03/05 02:07:31;;;;;;;18.30;8.70;;;-0.70;99.90;;;;;;5049803;28;20495;-54
2022/03/05 02:09:57;;;;;;;20.55;9.18;;;-0.70;99.90;;;;;;5031059;28;20980;-55
2022/03/05 02:12:33;;;;;;;19.60;9.85;;;-0.70;99.90;;;;;;5049954;28;20460;-54
2022/03/05 02:14:59;;;;;;;19.63;9.23;;;-0.20;99.90;;;;;;5049353;28;20464;-55
2022/03/05 02:17:29;;;;;;;15.80;8.48;;;-0.70;99.90;;;;;;5049657;28;20839;-55
2022/03/05 02:19:56;;;;;;;18.40;8.90;;;-0.80;99.90;;;;;;5048854;28;20385;-55
2022/03/05 02:22:22;;;;;;;18.88;8.60;;;-0.80;99.90;;;;;;5049487;28;20913;-55
2022/03/05 02:24:55;;;;;;;18.80;8.80;;;-0.90;99.90;;;;;;5048662;28;20739;-55
2022/03/05 02:27:23;;;;;;;21.88;9.77;;;-0.90;99.90;;;;;;5048575;28;20852;-55
2022/03/05 02:29:49;;;;;;;19.05;9.35;;;-0.90;99.90;;;;;;5048937;28;20389;-55
2022/03/05 02:32:15;;;;;;;20.60;10.10;;;-1.00;99.90;;;;;;5049690;28;20385;-55
2022/03/05 02:34:41;;;;;;;19.15;9.00;;;-1.00;99.90;;;;;;5049562;28;20377;-55
2022/03/05 02:37:11;;;;;;;18.50;9.13;;;-1.20;99.90;;;;;;5049039;28;20389;-55
2022/03/05 02:39:37;;;;;;;20.00;9.82;;;-0.70;99.90;;;;;;5049561;28;20389;-55
2022/03/05 02:42:03;;;;;;;17.45;8.73;;;-1.40;99.90;;;;;;5048697;28;20475;-55
2022/03/05 02:44:29;;;;;;;16.85;9.27;;;-1.40;99.90;;;;;;5049506;28;20381;-55
2022/03/05 02:46:56;;;;;;;18.25;8.77;;;-1.40;99.90;;;;;;5056612;28;20451;-55
2022/03/05 02:49:21;;;;;;;21.38;10.07;;;-1.50;99.90;;;;;;5064796;28;20403;-55
2022/03/05 02:51:47;;;;;;;20.50;9.67;;;0.30;99.90;;;;;;5068490;28;20388;-55
2022/03/05 02:54:13;;;;;;;18.23;8.55;;;-0.60;99.90;;;;;;5069435;28;20441;-57
2022/03/05 02:56:38;;;;;;;16.02;8.52;;;0.30;99.90;;;;;;5069354;28;20380;-57
2022/03/05 02:59:04;;;;;;;18.73;8.50;;;-1.50;99.90;;;;;;5071984;28;20383;-57
2022/03/05 03:01:30;;;;;;;16.87;8.70;;;-1.50;99.90;;;;;;5073223;28;20912;-57
2022/03/05 03:03:55;;;;;;;18.80;9.13;;;-1.50;99.90;;;;;;5072456;28;20404;-57
2022/03/05 03:06:21;;;;;;;23.00;10.25;;;-1.50;99.90;;;;;;5073398;28;20405;-57
2022/03/05 03:08:46;;;;;;;20.47;9.23;;;-1.50;99.90;;;;;;5072290;28;20393;-58
2022/03/05 03:11:12;;;;;;;18.85;9.02;;;-1.50;99.90;;;;;;5072950;28;20422;-57
2022/03/05 03:13:38;;;;;;;22.40;10.03;;;-1.50;99.90;;;;;;5073309;28;20382;-57
2022/03/05 03:16:04;;;;;;;17.73;9.23;;;0.10;99.90;;;;;;5072239;28;20380;-55
2022/03/05 03:18:31;;;;;;;19.08;9.65;;;-1.50;99.90;;;;;;5072651;28;20456;-55
2022/03/05 03:20:57;;;;;;;21.60;10.43;;;-1.50;99.90;;;;;;5072220;28;20847;-57
2022/03/05 03:23:22;;;;;;;20.17;9.80;;;-1.60;99.90;;;;;;5073078;28;20407;-57
2022/03/05 03:25:48;;;;;;;20.77;9.70;;;-1.70;99.90;;;;;;5072229;28;20425;-57
2022/03/05 03:28:13;;;;;;;19.80;9.23;;;-1.80;99.90;;;;;;5072949;28;20376;-57
2022/03/05 03:30:39;;;;;;;18.93;9.67;;;-1.80;99.90;;;;;;5072900;28;20383;-57
2022/03/05 03:33:05;;;;;;;19.65;10.00;;;-1.70;99.90;;;;;;5071830;28;20371;-57
2022/03/05 03:35:31;;;;;;;21.77;10.57;;;-1.70;99.90;;;;;;5072517;28;20380;-57
2022/03/05 03:37:57;;;;;;;19.88;9.95;;;-1.70;99.90;;;;;;5071832;28;20375;-57
2022/03/05 03:40:23;;;;;;;18.75;9.73;;;-1.80;99.90;;;;;;5072620;28;20372;-57
2022/03/05 03:42:50;;;;;;;21.98;9.48;;;-1.80;99.90;;;;;;5069122;28;20834;-56
2022/03/05 03:45:17;;;;;;;21.00;10.20;;;-1.90;99.90;;;;;;5055540;28;20389;-61
2022/03/05 03:47:45;;;;;;;19.30;9.82;;;-1.90;99.90;;;;;;5072103;28;20410;-57
2022/03/05 03:50:13;;;;;;;20.58;10.70;;;0.00;99.90;;;;;;5064748;28;20409;-57
2022/03/05 03:52:39;;;;;;;21.42;9.95;;;-2.00;99.90;;;;;;5051149;28;20750;-57
2022/03/05 03:55:08;;;;;;;22.45;11.13;;;-2.00;99.90;;;;;;5051765;28;20382;-57
2022/03/05 03:57:33;;;;;;;21.55;10.05;;;-2.00;99.90;;;;;;5052485;28;20378;-57
2022/03/05 03:59:59;;;;;;;21.35;9.63;;;-0.70;99.90;;;;;;5051420;28;20847;-57
2022/03/05 04:02:25;;;;;;;21.23;9.88;;;-2.00;99.90;;;;;;5052140;28;20421;-57
2022/03/05 04:04:50;;;;;;;21.98;10.40;;;-2.10;99.90;;;;;;5051572;28;20480;-57
2022/03/05 04:10:05;;;;;;;20.55;9.85;;;-2.10;99.90;;;;;;5050602;28;20373;-57
2022/03/05 04:12:31;;;;;;;18.60;9.27;;;-2.00;99.90;;;;;;5052113;28;20374;-57
2022/03/05 04:14:57;;;;;;;24.10;9.67;;;-2.10;99.90;;;;;;5051814;28;20520;-57
2022/03/05 04:17:22;;;;;;;19.02;9.75;;;-2.10;99.90;;;;;;5051958;28;20731;-57
2022/03/05 04:19:48;;;;;;;20.25;9.52;;;-2.10;99.90;;;;;;5051347;28;20724;-58
2022/03/05 04:22:14;;;;;;;24.52;10.43;;;-2.30;99.90;;;;;;5051692;28;20903;-57
2022/03/05 04:24:40;;;;;;;19.90;9.30;;;-2.10;99.90;;;;;;5051586;28;20386;-57
2022/03/05 04:27:06;;;;;;;19.90;9.40;;;-1.80;99.90;;;;;;5050924;28;20385;-57
2022/03/05 04:29:32;;;;;;;24.27;9.82;;;-2.10;99.90;;;;;;5052166;28;20389;-56
2022/03/05 04:31:58;;;;;;;23.23;10.07;;;0.00;99.90;;;;;;5058433;28;20455;-57
2022/03/05 04:34:24;;;;;;;19.20;9.27;;;-2.20;99.90;;;;;;5061692;28;20397;-57
2022/03/05 04:36:49;;;;;;;19.98;9.60;;;-0.40;99.90;;;;;;5049210;28;20477;-57
2022/03/05 04:39:15;;;;;;;21.73;10.00;;;-2.20;99.90;;;;;;5069536;28;20376;-57
2022/03/05 04:41:41;;;;;;;21.63;9.48;;;-2.20;99.90;;;;;;5071301;28;20800;-57
2022/03/05 04:44:06;;;;;;;20.75;9.73;;;-0.10;99.90;;;;;;5070891;28;20387;-56
2022/03/05 04:46:32;;;;;;;21.55;9.40;;;-2.30;99.90;;;;;;5071738;28;20802;-57
2022/03/05 04:48:59;;;;;;;20.65;9.80;;;-2.30;99.90;;;;;;5070152;28;20927;-56
2022/03/05 04:51:24;;;;;;;23.00;9.48;;;-2.40;99.90;;;;;;5071528;28;20384;-56
2022/03/05 04:53:50;;;;;;;20.48;9.43;;;-2.40;99.90;;;;;;5070567;28;20429;-56
2022/03/05 04:56:16;;;;;;;21.05;9.80;;;-2.40;99.90;;;;;;5071519;28;20395;-57
2022/03/05 04:58:41;;;;;;;21.30;9.40;;;-2.50;99.90;;;;;;5071111;28;20918;-56
2022/03/05 05:01:07;;;;;;;21.03;9.40;;;-2.60;99.90;;;;;;5070068;28;20467;-57
2022/03/05 05:03:33;;;;;;;25.08;10.00;;;-2.60;99.90;;;;;;5071076;28;20391;-57
2022/03/05 05:05:59;;;;;;;21.33;9.57;;;-2.60;99.90;;;;;;5058190;28;20394;-57
2022/03/05 05:08:25;;;;;;;23.02;10.40;;;-2.60;99.90;;;;;;5050539;28;20468;-56
2022/03/05 05:10:51;;;;;;;22.17;9.75;;;-2.60;99.90;;;;;;5051869;28;20926;-57
2022/03/05 05:13:16;;;;;;;22.90;9.20;;;-2.60;99.90;;;;;;5070879;28;20745;-57
2022/03/05 05:15:42;;;;;;;20.88;9.63;;;-2.60;99.90;;;;;;5054168;28;20386;-57
2022/03/05 05:18:08;;;;;;;21.27;9.93;;;-2.60;99.90;;;;;;5031863;28;20470;-58
2022/03/05 05:20:34;;;;;;;22.60;9.80;;;-2.70;99.90;;;;;;5050783;28;20386;-56
2022/03/05 05:22:59;;;;;;;20.17;9.33;;;-2.70;99.90;;;;;;5053510;28;20411;-57
2022/03/05 05:25:25;;;;;;;22.45;10.30;;;-2.60;99.90;;;;;;5070535;28;20380;-57
2022/03/05 05:27:51;;;;;;;18.95;9.05;;;-2.60;99.90;;;;;;5069679;28;20418;-57
2022/03/05 05:30:16;;;;;;;20.53;9.90;;;-1.20;99.90;;;;;;5070289;28;20376;-57
2022/03/05 05:32:42;;;;;;;20.40;9.20;;;-2.60;99.90;;;;;;5070475;28;20741;-57
2022/03/05 05:35:08;;;;;;;17.67;9.07;;;-2.70;99.90;;;;;;5069836;28;20468;-56
2022/03/05 05:37:34;;;;;;;20.00;9.98;;;-2.70;99.90;;;;;;5070172;28;20757;-57
2022/03/05 05:40:01;;;;;;;23.90;10.57;;;-2.80;99.90;;;;;;5069806;28;20376;-57
2022/03/05 05:42:26;;;;;;;21.85;10.00;;;-2.80;99.90;;;;;;5052399;28;20492;-57
2022/03/05 05:44:52;;;;;;;21.85;10.23;;;-2.80;99.90;;;;;;5051834;28;20388;-57
2022/03/05 05:47:18;;;;;;;24.10;10.20;;;-2.80;99.90;;;;;;5052378;28;20390;-56
2022/03/05 05:49:44;;;;;;;23.73;10.30;;;-2.80;99.90;;;;;;5067348;28;20408;-57
2022/03/05 05:52:10;;;;;;;23.40;10.40;;;-1.70;99.90;;;;;;5065185;28;21027;-57
2022/03/05 05:54:35;;;;;;;21.33;10.07;;;-3.00;99.90;;;;;;5069724;28;20418;-56
2022/03/05 05:57:01;;;;;;;23.57;10.57;;;-2.90;99.90;;;;;;5068827;28;20380;-57
2022/03/05 05:59:27;;;;;;;22.58;10.10;;;-3.80;99.90;;;;;;5069646;28;20463;-57
2022/03/05 06:01:53;;;;;;;22.30;10.50;;;-2.80;99.90;;;;;;5049847;28;20447;-57
2022/03/05 06:04:18;;;;;;;22.45;10.75;;;-1.70;99.90;;;;;;5069125;28;20376;-56
2022/03/05 06:06:44;;;;;;;24.58;10.60;;;-2.70;99.90;;;;;;5069461;28;20412;-57
2022/03/05 06:09:10;;;;;;;21.13;9.93;;;-2.70;99.90;;;;;;5068574;28;20933;-57
2022/03/05 06:11:35;;;;;;;23.25;11.07;;;-2.70;99.90;;;;;;5069395;28;20465;-57
2022/03/05 06:14:01;;;;;;;28.60;11.00;;;-2.70;99.90;;;;;;5068541;28;20873;-57
2022/03/05 06:16:26;;;;;;;23.80;11.30;;;-2.70;99.90;;;;;;5069387;28;20380;-57
2022/03/05 06:18:53;;;;;;;23.57;11.43;;;-2.70;99.90;;;;;;5068581;28;20407;-57
2022/03/05 06:21:18;;;;;;;24.60;10.88;;;-2.60;99.90;;;;;;5069654;28;20439;-57
2022/03/05 06:23:44;;;;;;;22.33;10.35;;;-2.50;99.90;;;;;;5065536;28;20479;-58
2022/03/05 06:26:10;;;;;;;21.58;11.13;;;-2.40;99.90;;;;;;5066400;28;20376;-57
2022/03/05 06:28:35;;;;;;;25.38;11.30;;;-2.30;99.90;;;;;;5069320;28;20372;-55
2022/03/05 06:31:02;;;;;;;17.40;8.87;;;-1.70;99.90;;;;;;5068567;28;20423;-55
2022/03/05 06:33:28;;;;;;;21.57;9.20;;;-0.70;99.90;;;;;;5068590;28;20884;-55
2022/03/05 06:35:54;;;;;;;17.53;8.70;;;0.40;99.90;;;;;;5068575;28;20412;-55
2022/03/05 06:38:20;;;;;;;20.38;9.82;;;1.30;99.90;;;;;;5051741;28;20391;-55
2022/03/05 06:40:46;;;;;;;18.47;10.30;;;2.00;99.90;;;;;;5069607;28;20423;-57
2022/03/05 06:43:12;;;;;;;20.70;10.50;;;2.50;99.90;;;;;;5050545;28;20521;-58
2022/03/05 06:45:38;;;;;;;20.60;9.70;;;3.30;99.90;;;;;;5069175;28;20746;-53
2022/03/05 06:48:05;;;;;;;22.77;10.88;;;3.70;99.80;;;;;;5068369;28;20404;-54
2022/03/05 06:50:31;;;;;;;19.52;10.43;;;4.40;98.10;;;;;;5069440;28;20376;-53
2022/03/05 06:52:57;;;;;;;20.83;10.33;;;5.10;96.30;;;;;;5068798;28;20390;-57
2022/03/05 06:55:23;;;;;;;19.73;11.07;;;5.80;93.80;;;;;;5069218;28;20391;-54
2022/03/05 06:57:49;;;;;;;21.50;11.38;;;6.20;92.00;;;;;;5069247;28;20841;-57
2022/03/05 07:00:15;;;;;;;19.95;11.05;;;6.40;90.20;;;;;;5069062;28;20395;-54
2022/03/05 07:02:42;;;;;;;21.15;11.57;;;6.50;89.30;;;;;;5051278;28;20924;-55
2022/03/05 07:05:09;;;;;;;23.45;12.15;;;6.80;87.50;;;;;;5060628;28;20879;-55
2022/03/05 07:07:35;;;;;;;24.75;12.98;;;7.60;85.10;;;;;;5067876;28;20397;-56
2022/03/05 07:10:01;;;;;;;27.23;15.10;;;8.70;81.30;;;;;;5039223;28;20373;-55
2022/03/05 07:12:27;;;;;;;25.17;17.33;;;9.40;76.10;;;;;;5048956;28;20381;-54
2022/03/05 07:14:52;;;;;;;25.75;20.40;;;9.90;73.30;;;;;;5062739;28;20895;-58
2022/03/05 07:17:19;;;;;;;26.73;19.53;;;10.20;68.70;;;;;;5068402;28;20377;-54
2022/03/05 07:19:45;;;;;;;32.38;22.95;;;10.80;64.90;;;;;;5068525;28;20376;-56
2022/03/05 07:22:11;;;;;;;25.92;20.17;;;11.10;62.80;;;;;;5067838;28;20493;-54
2022/03/05 07:24:37;;;;;;;23.00;18.37;;;11.50;61.40;;;;;;5051098;28;20376;-55
2022/03/05 07:27:03;;;;;;;23.95;17.58;;;12.40;58.80;;;;;;5068067;28;20467;-56
2022/03/05 07:29:29;;;;;;;27.50;17.95;;;12.60;56.00;;;;;;5062752;28;20483;-55
2022/03/05 07:31:54;;;;;;;25.23;18.33;;;12.80;55.00;;;;;;5048148;28;20464;-55
2022/03/05 07:34:20;;;;;;;21.40;18.38;;;12.00;55.60;;;;;;5048802;28;20467;-55
2022/03/05 07:36:46;;;;;;;21.40;17.77;;;12.80;54.40;;;;;;5048392;28;20377;-58
2022/03/05 07:39:12;;;;;;;24.50;19.33;;;13.20;52.10;;;;;;5051214;28;20843;-54
2022/03/05 07:41:38;;;;;;;24.60;19.42;;;13.30;51.30;;;;;;5069186;28;20410;-58
2022/03/05 07:44:05;;;;;;;21.55;18.08;;;13.10;52.10;;;;;;5068286;28;20880;-55
2022/03/05 07:46:35;;;;;;;23.90;19.30;;;13.80;51.50;;;;;;5072155;28;20512;-59
2022/03/05 07:49:01;;;;;;;25.20;18.63;;;14.50;50.30;;;;;;5071739;28;20392;-55
2022/03/05 07:51:27;;;;;;;21.10;17.93;;;15.00;48.00;;;;;;5072286;28;20834;-53
2022/03/05 07:53:53;;;;;;;22.23;17.70;;;15.40;46.40;;;;;;5065248;28;20383;-58
2022/03/05 07:56:22;;;;;;;23.95;18.73;;;15.50;46.20;;;;;;5057829;28;20381;-58
2022/03/05 07:58:47;;;;;;;24.77;18.20;;;14.90;45.90;;;;;;5053178;28;20416;-54
2022/03/05 08:01:13;;;;;;;22.10;18.67;;;14.60;46.70;;;;;;5057295;28;20453;-58
2022/03/05 08:03:39;;;;;;;21.98;18.20;;;15.10;46.40;;;;;;5071598;28;20384;-58
2022/03/05 08:06:05;;;;;;;25.15;19.08;;;15.70;44.80;;;;;;5070626;28;21132;-58
2022/03/05 08:08:31;;;;;;;23.80;18.40;;;16.30;42.70;;;;;;5071810;28;20395;-58
2022/03/05 08:10:57;;;;;;;23.40;18.70;;;16.00;42.70;;;;;;5069368;28;20407;-58
2022/03/05 08:13:23;;;;;;;25.67;19.57;;;17.60;43.50;;;;;;5071793;28;20418;-57
2022/03/05 08:15:49;;;;;;;25.52;18.98;;;15.20;43.00;;;;;;5071888;28;20741;-57
2022/03/05 08:18:14;;;;;;;23.88;17.90;;;14.70;43.50;;;;;;5070510;28;20398;-57
2022/03/05 08:20:40;;;;;;;26.20;19.13;;;14.50;43.30;;;;;;5071386;28;20562;-57
2022/03/05 08:23:06;;;;;;;26.43;19.03;;;14.60;43.90;;;;;;5070487;28;20857;-58
2022/03/05 08:25:32;;;;;;;27.20;19.42;;;14.80;43.60;;;;;;5071606;28;20383;-57
2022/03/05 08:27:58;;;;;;;24.35;18.80;;;14.80;43.60;;;;;;5069687;28;20765;-57
2022/03/05 08:30:24;;;;;;;25.38;18.33;;;14.70;43.80;;;;;;5068866;28;20431;-57
2022/03/05 08:32:50;;;;;;;24.30;18.30;;;14.40;44.00;;;;;;5070733;28;20413;-57
2022/03/05 08:35:16;;;;;;;28.23;20.60;;;14.40;43.70;;;;;;5068152;28;20462;-57
2022/03/05 08:37:43;;;;;;;25.42;19.30;;;14.60;44.10;;;;;;5066709;28;20380;-57
2022/03/05 08:40:12;;;;;;;24.60;18.35;;;15.00;43.10;;;;;;5070510;28;20505;-57
2022/03/05 08:42:38;;;;;;;25.15;18.58;;;15.40;42.40;;;;;;5068468;28;20482;-57
2022/03/05 08:45:05;;;;;;;24.33;18.63;;;15.60;42.10;;;;;;5052381;28;20868;-57
2022/03/05 08:47:31;;;;;;;24.63;18.52;;;15.30;42.30;;;;;;5070395;28;20407;-57
2022/03/05 08:49:57;;;;;;;24.90;19.02;;;15.10;42.40;;;;;;5070040;28;20440;-58
2022/03/05 08:52:23;;;;;;;24.47;17.77;;;15.20;42.10;;;;;;5070080;28;20864;-57
2022/03/05 08:54:49;;;;;;;25.67;18.35;;;15.30;42.40;;;;;;5069531;28;20387;-57
2022/03/05 08:57:15;;;;;;;23.20;17.50;;;15.60;42.20;;;;;;5069532;28;20491;-58
2022/03/05 08:59:41;;;;;;;23.35;17.73;;;15.20;41.80;;;;;;5070905;28;20387;-57
2022/03/05 09:02:08;;;;;;;23.93;17.30;;;15.30;41.70;;;;;;5069636;28;20411;-57
2022/03/05 09:04:34;;;;;;;23.88;17.48;;;14.70;42.30;;;;;;5067767;28;20919;-57
2022/03/05 09:07:00;;;;;;;26.40;18.02;;;14.70;43.10;;;;;;5069478;28;20422;-58
2022/03/05 09:09:26;;;;;;;25.40;18.63;;;15.40;43.30;;;;;;5070516;28;20384;-57
2022/03/05 09:11:52;;;;;;;26.53;18.77;;;15.50;42.40;;;;;;5057985;28;20461;-58
2022/03/05 09:14:17;;;;;;;23.20;17.80;;;15.70;42.00;;;;;;5069410;28;20461;-58
2022/03/05 09:16:43;;;;;;;24.70;19.10;;;15.30;42.30;;;;;;5070527;28;20733;-58
2022/03/05 09:19:09;;;;;;;30.67;21.17;;;15.40;42.60;;;;;;5067733;28;20400;-58
2022/03/05 09:21:36;;;;;;;24.80;19.08;;;15.30;42.20;;;;;;5066128;28;20417;-58
2022/03/05 09:24:03;;;;;;;25.45;19.83;;;15.50;42.10;;;;;;5063595;28;20964;-58
2022/03/05 09:26:28;;;;;;;27.58;18.45;;;15.10;42.70;;;;;;5062675;28;20397;-58
2022/03/05 09:28:56;;;;;;;24.52;18.77;;;15.40;42.50;;;;;;5058271;28;21523;-59
2022/03/05 09:31:22;;;;;;;21.53;16.80;;;15.60;41.80;;;;;;5065181;28;20432;-58
2022/03/05 09:33:47;;;;;;;23.10;18.70;;;15.90;40.10;;;;;;5070082;28;20376;-58
2022/03/05 09:36:13;;;;;;;23.35;17.77;;;15.70;41.00;;;;;;5064609;28;20460;-58
2022/03/05 09:38:38;;;;;;;23.00;17.70;;;16.30;40.50;;;;;;5065460;28;20451;-58
2022/03/05 09:41:06;;;;;;;23.90;18.27;;;15.90;40.10;;;;;;5068190;28;20449;-58
2022/03/05 09:43:35;;;;;;;21.90;17.40;;;16.20;40.20;;;;;;5065821;28;20421;-58
2022/03/05 09:46:01;;;;;;;23.48;17.30;;;17.00;39.20;;;;;;5065295;28;20471;-58
2022/03/05 09:48:31;;;;;;;24.10;18.67;;;16.80;38.70;;;;;;5056756;28;20436;-58
2022/03/05 09:50:58;;;;;;;22.40;18.38;;;16.60;38.50;;;;;;5064002;28;20580;-59
2022/03/05 09:53:29;;;;;;;24.73;18.73;;;16.70;39.00;;;;;;5066041;28;20387;-60
2022/03/05 09:55:54;;;;;;;26.33;20.50;;;17.30;38.30;;;;;;5070098;28;20382;-59
2022/03/05 09:58:20;;;;;;;22.35;18.17;;;17.30;37.20;;;;;;5060854;28;20386;-58
2022/03/05 10:00:46;;;;;;;24.58;20.15;;;17.10;37.50;;;;;;5066495;28;20700;-56
2022/03/05 10:03:13;;;;;;;21.85;17.13;;;17.80;37.40;;;;;;5056818;28;20388;-56
2022/03/05 10:05:38;;;;;;;21.80;17.73;;;17.90;36.40;;;;;;5066289;28;20396;-56
2022/03/05 10:08:12;;;;;;;21.25;17.13;;;18.30;36.80;;;;;;5051250;28;20369;-58
2022/03/05 10:10:42;;;;;;;21.92;16.85;;;17.60;35.80;;;;;;5050143;28;21086;-58
2022/03/05 10:13:26;;;;;;;23.27;17.40;;;17.10;36.50;;;;;;5058613;28;20428;-58
2022/03/05 10:15:59;;;;;;;20.25;16.83;;;16.90;36.50;;;;;;5067623;28;20419;-58
2022/03/05 10:18:30;;;;;;;22.20;17.67;;;17.00;37.40;;;;;;5054455;28;20389;-58
2022/03/05 10:20:57;;;;;;;22.90;18.45;;;17.00;37.30;;;;;;5049854;28;20445;-59
2022/03/05 10:23:22;;;;;;;21.65;17.50;;;16.70;36.90;;;;;;5060089;28;20407;-58
2022/03/05 10:25:50;;;;;;;19.83;16.40;;;16.20;36.90;;;;;;5063730;28;20483;-58
2022/03/05 10:28:26;;;;;;;19.95;14.90;;;16.30;36.10;;;;;;5050572;28;20426;-58
2022/03/05 10:31:12;;;;;;;19.23;14.60;;;15.90;36.00;;;;;;5064209;28;20454;-57
2022/03/05 10:33:46;;;;;;;17.30;13.57;;;14.50;35.50;;;;;;5063119;28;20495;-58
2022/03/05 10:36:20;;;;;;;20.10;14.10;;;13.30;36.30;;;;;;5065696;28;20539;-58
2022/03/05 10:38:55;;;;;;;19.07;14.13;;;12.20;37.30;;;;;;5066833;28;20383;-57
2022/03/05 10:41:36;;;;;;;17.90;14.10;;;12.70;39.10;;;;;;5068616;28;20441;-58
2022/03/05 10:44:16;;;;;;;19.17;14.20;;;11.20;38.60;;;;;;5068228;28;20429;-57
2022/03/05 10:46:46;;;;;;;21.58;15.52;;;10.30;39.80;;;;;;5063451;28;20761;-57
2022/03/05 10:49:23;;;;;;;16.75;8.68;;;9.60;41.10;;;;;;5067841;28;20403;-57
2022/03/05 10:52:10;;;;;;;15.90;8.13;;;9.40;41.90;;;;;;5066959;28;20394;-57
2022/03/05 10:54:41;;;;;;;15.20;8.15;;;10.10;41.20;;;;;;5057104;28;20395;-57
2022/03/05 10:57:18;;;;;;;16.08;8.02;;;11.00;40.00;;;;;;5065549;28;20450;-57
2022/03/05 10:59:49;;;;;;;16.98;8.00;;;11.00;39.50;;;;;;5048347;28;22514;-58
2022/03/05 11:02:16;;;;;;;16.00;7.67;;;10.40;39.40;;;;;;5059784;28;20510;-58
2022/03/05 11:04:42;;;;;;;15.15;7.72;;;9.90;40.60;;;;;;5061363;28;20395;-58
2022/03/05 11:07:09;;;;;;;12.93;6.18;;;10.60;39.00;;;;;;5061831;28;20400;-58
2022/03/05 11:09:37;;;;;;;15.53;8.50;;;10.90;37.90;;;;;;5067565;28;20409;-56
2022/03/05 11:12:03;;;;;;;16.10;7.43;;;11.80;39.60;;;;;;5068936;28;20406;-56
2022/03/05 11:14:29;;;;;;;13.27;6.68;;;11.80;37.60;;;;;;5068823;28;20396;-58
2022/03/05 11:16:56;;;;;;;14.20;7.00;;;11.40;36.90;;;;;;5068453;28;20376;-58
2022/03/05 11:19:23;;;;;;;14.45;6.93;;;11.20;37.00;;;;;;5070423;28;20427;-58
2022/03/05 11:21:49;;;;;;;15.15;6.57;;;10.50;36.80;;;;;;5072874;28;20474;-57
2022/03/05 11:24:18;;;;;;;15.32;6.95;;;10.00;38.90;;;;;;5072096;28;20463;-57
2022/03/05 11:26:47;;;;;;;14.02;7.15;;;9.80;40.00;;;;;;5072952;28;20372;-58
2022/03/05 11:29:16;;;;;;;13.90;7.23;;;10.60;39.40;;;;;;5072264;28;20857;-57
2022/03/05 11:31:42;;;;;;;15.93;8.10;;;11.00;38.80;;;;;;5072726;28;20406;-58
2022/03/05 11:34:15;;;;;;;13.57;6.70;;;11.40;38.50;;;;;;5071440;28;20857;-58
2022/03/05 11:36:42;;;;;;;15.40;7.55;;;11.30;37.40;;;;;;5072461;28;20864;-58
2022/03/05 11:39:18;;;;;;;14.60;7.40;;;10.60;38.00;;;;;;5071555;28;20380;-58
2022/03/05 11:41:51;;;;;;;16.15;7.47;;;9.80;39.90;;;;;;5072488;28;20400;-58
2022/03/05 11:44:18;;;;;;;14.75;7.90;;;9.20;41.30;;;;;;5071803;28;20392;-58
2022/03/05 11:46:44;;;;;;;16.57;8.17;;;9.30;42.10;;;;;;5072614;28;20439;-58
2022/03/05 11:49:12;;;;;;;16.85;8.10;;;9.60;42.00;;;;;;5071905;28;20388;-56
2022/03/05 11:51:59;;;;;;;15.07;7.72;;;9.30;42.40;;;;;;5072405;28;20426;-56
2022/03/05 11:54:25;;;;;;;17.52;8.82;;;8.60;42.60;;;;;;5071948;28;20376;-56
2022/03/05 11:57:08;;;;;;;14.73;7.68;;;8.80;42.80;;;;;;5072162;28;20399;-56
2022/03/05 11:59:35;;;;;;;15.60;7.97;;;9.10;43.00;;;;;;5072332;28;20394;-56
2022/03/05 12:02:01;;;;;;;15.77;7.38;;;10.80;43.20;;;;;;5070267;28;20411;-57
2022/03/05 12:04:28;;;;;;;15.13;7.82;;;8.90;42.60;;;;;;5063182;28;20950;-56
2022/03/05 12:07:10;;;;;;;16.23;7.83;;;9.00;43.00;;;;;;5060190;28;20453;-56
2022/03/05 12:09:44;;;;;;;14.40;7.60;;;9.20;42.50;;;;;;5052097;28;20447;-56
2022/03/05 12:12:16;;;;;;;15.87;7.53;;;9.30;42.20;;;;;;5051179;28;20871;-57
2022/03/05 12:15:00;;;;;;;14.90;7.55;;;11.50;42.10;;;;;;5069237;28;20396;-57
2022/03/05 12:17:33;;;;;;;15.45;7.18;;;9.90;40.40;;;;;;5069892;28;20459;-56
2022/03/05 12:19:58;;;;;;;14.68;7.35;;;9.80;40.80;;;;;;5061708;28;20460;-56
2022/03/05 12:22:24;;;;;;;15.43;8.00;;;9.50;41.00;;;;;;5049530;28;20895;-56
2022/03/05 12:24:50;;;;;;;14.40;7.40;;;9.70;41.70;;;;;;5071349;28;20791;-56
2022/03/05 12:27:17;;;;;;;15.53;8.27;;;9.30;41.60;;;;;;5067253;28;20395;-58
2022/03/05 12:29:47;;;;;;;15.20;8.00;;;9.40;41.80;;;;;;5068272;28;20395;-57
2022/03/05 12:32:16;;;;;;;15.43;7.75;;;9.60;41.70;;;;;;5060569;28;20423;-57
2022/03/05 12:34:42;;;;;;;15.02;7.40;;;9.60;41.60;;;;;;5071046;28;20442;-57